sensor_id;sensor_type;location;lat;lon;timestamp;P1;durP1;ratioP1;P2;durP2;ratioP2
82869;SDS011;72645;47.136;15.420;2024-03-23T00:54:42;3.30;;;1.90;;
82869;SDS011;72645;47.136;15.420;2024-03-23T00:57:12;4.00;;;2.20;;
82869;SDS011;72645;47.136;15.420;2024-03-23T00:59:43;4.50;;;2.20;;
82869;SDS011;72645;47.136;15.420;2024-03-23T01:02:13;3.30;;;2.60;;
82869;SDS011;72645;47.136;15.420;2024-03-23T01:04:44;5.40;;;2.50;;
82869;SDS011;72645;47.136;15.420;2024-03-23T01:07:14;4.20;;;2.30;;
82869;SDS011;72645;47.136;15.420;2024-03-23T01:12:13;2.50;;;1.60;;
82869;SDS011;72645;47.136;15.420;2024-03-23T01:14:44;3.10;;;1.80;;
82869;SDS011;72645;47.136;15.420;2024-03-23T01:19:43;3.40;;;2.10;;
82869;SDS011;72645;47.136;15.420;2024-03-23T01:24:42;5.60;;;2.20;;
82869;SDS011;72645;47.136;15.420;2024-03-23T01:27:13;3.30;;;1.80;;
82869;SDS011;72645;47.136;15.420;2024-03-23T01:29:43;3.80;;;1.90;;
82869;SDS011;72645;47.136;15.420;2024-03-23T01:32:14;3.20;;;1.90;;
82869;SDS011;72645;47.136;15.420;2024-03-23T01:34:46;3.60;;;1.90;;
82869;SDS011;72645;47.136;15.420;2024-03-23T01:37:16;4.00;;;1.80;;
82869;SDS011;72645;47.136;15.420;2024-03-23T01:39:47;2.90;;;1.70;;
82869;SDS011;72645;47.136;15.420;2024-03-23T01:47:15;5.10;;;1.70;;
82869;SDS011;72645;47.136;15.420;2024-03-23T01:49:46;2.70;;;2.30;;
82869;SDS011;72645;47.136;15.420;2024-03-23T01:52:16;4.90;;;2.60;;
82869;SDS011;72645;47.136;15.420;2024-03-23T01:54:47;4.80;;;2.10;;
82869;SDS011;72645;47.136;15.420;2024-03-23T01:57:18;5.40;;;2.60;;
82869;SDS011;72645;47.136;15.420;2024-03-23T01:59:49;4.80;;;2.50;;
82869;SDS011;72645;47.136;15.420;2024-03-23T02:02:21;4.80;;;2.30;;
82869;SDS011;72645;47.136;15.420;2024-03-23T02:04:51;5.50;;;3.20;;
82869;SDS011;72645;47.136;15.420;2024-03-23T02:09:51;6.10;;;3.20;;
82869;SDS011;72645;47.136;15.420;2024-03-23T02:12:22;4.80;;;2.80;;
82869;SDS011;72645;47.136;15.420;2024-03-23T02:14:52;6.80;;;3.20;;
82869;SDS011;72645;47.136;15.420;2024-03-23T02:19:52;3.30;;;1.90;;
82869;SDS011;72645;47.136;15.420;2024-03-23T02:24:51;3.40;;;1.90;;
82869;SDS011;72645;47.136;15.420;2024-03-23T02:27:22;2.80;;;1.90;;
82869;SDS011;72645;47.136;15.420;2024-03-23T02:29:54;4.60;;;1.80;;
82869;SDS011;72645;47.136;15.420;2024-03-23T02:34:53;2.60;;;1.60;;
82869;SDS011;72645;47.136;15.420;2024-03-23T02:39:53;4.00;;;1.50;;
82869;SDS011;72645;47.136;15.420;2024-03-23T02:44:52;4.70;;;2.70;;
82869;SDS011;72645;47.136;15.420;2024-03-23T02:49:51;4.50;;;2.40;;
82869;SDS011;72645;47.136;15.420;2024-03-23T02:52:22;4.90;;;2.70;;
82869;SDS011;72645;47.136;15.420;2024-03-23T02:57:22;3.30;;;2.30;;
82869;SDS011;72645;47.136;15.420;2024-03-23T02:59:52;6.80;;;2.20;;
82869;SDS011;72645;47.136;15.420;2024-03-23T03:04:52;3.50;;;1.70;;
82869;SDS011;72645;47.136;15.420;2024-03-23T03:09:51;12.00;;;4.70;;
82869;SDS011;72645;47.136;15.420;2024-03-23T03:14:50;3.90;;;1.90;;
82869;SDS011;72645;47.136;15.420;2024-03-23T03:17:21;3.50;;;2.20;;
82869;SDS011;72645;47.136;15.420;2024-03-23T03:19:52;4.70;;;2.10;;
82869;SDS011;72645;47.136;15.420;2024-03-23T03:22:23;2.90;;;2.00;;
82869;SDS011;72645;47.136;15.420;2024-03-23T03:24:53;3.70;;;2.50;;
82869;SDS011;72645;47.136;15.420;2024-03-23T03:29:53;3.70;;;2.30;;
82869;SDS011;72645;47.136;15.420;2024-03-23T03:32:23;4.40;;;2.10;;
82869;SDS011;72645;47.136;15.420;2024-03-23T03:34:53;2.20;;;1.60;;
82869;SDS011;72645;47.136;15.420;2024-03-23T03:39:53;3.80;;;1.80;;
82869;SDS011;72645;47.136;15.420;2024-03-23T03:44:55;4.00;;;2.00;;
82869;SDS011;72645;47.136;15.420;2024-03-23T03:47:26;5.40;;;2.30;;
82869;SDS011;72645;47.136;15.420;2024-03-23T03:49:56;3.90;;;2.30;;
82869;SDS011;72645;47.136;15.420;2024-03-23T03:52:27;3.10;;;2.20;;
82869;SDS011;72645;47.136;15.420;2024-03-23T03:57:29;4.20;;;1.90;;
82869;SDS011;72645;47.136;15.420;2024-03-23T04:02:29;3.50;;;1.50;;
82869;SDS011;72645;47.136;15.420;2024-03-23T04:07:28;3.50;;;1.60;;
82869;SDS011;72645;47.136;15.420;2024-03-23T04:09:58;3.30;;;1.90;;
82869;SDS011;72645;47.136;15.420;2024-03-23T04:12:30;4.80;;;2.50;;
82869;SDS011;72645;47.136;15.420;2024-03-23T04:15:00;7.90;;;3.20;;
82869;SDS011;72645;47.136;15.420;2024-03-23T04:17:32;11.10;;;5.00;;
82869;SDS011;72645;47.136;15.420;2024-03-23T04:20:03;10.00;;;4.00;;
82869;SDS011;72645;47.136;15.420;2024-03-23T04:22:38;15.00;;;4.90;;
82869;SDS011;72645;47.136;15.420;2024-03-23T04:25:09;8.90;;;4.20;;
82869;SDS011;72645;47.136;15.420;2024-03-23T04:27:39;10.60;;;3.90;;
82869;SDS011;72645;47.136;15.420;2024-03-23T04:32:40;6.40;;;2.90;;
82869;SDS011;72645;47.136;15.420;2024-03-23T04:37:39;5.70;;;3.30;;
82869;SDS011;72645;47.136;15.420;2024-03-23T04:40:10;8.10;;;3.70;;
82869;SDS011;72645;47.136;15.420;2024-03-23T04:42:41;6.50;;;3.00;;
82869;SDS011;72645;47.136;15.420;2024-03-23T04:47:40;6.30;;;2.70;;
82869;SDS011;72645;47.136;15.420;2024-03-23T04:50:11;8.00;;;2.90;;
82869;SDS011;72645;47.136;15.420;2024-03-23T04:52:41;4.70;;;2.60;;
82869;SDS011;72645;47.136;15.420;2024-03-23T04:57:42;5.10;;;2.20;;
82869;SDS011;72645;47.136;15.420;2024-03-23T05:00:13;5.20;;;2.90;;
82869;SDS011;72645;47.136;15.420;2024-03-23T05:02:45;5.20;;;2.70;;
82869;SDS011;72645;47.136;15.420;2024-03-23T05:05:16;6.70;;;3.20;;
82869;SDS011;72645;47.136;15.420;2024-03-23T05:07:47;8.20;;;3.80;;
82869;SDS011;72645;47.136;15.420;2024-03-23T05:12:46;8.30;;;3.70;;
82869;SDS011;72645;47.136;15.420;2024-03-23T05:17:46;6.30;;;3.20;;
82869;SDS011;72645;47.136;15.420;2024-03-23T05:20:16;7.20;;;3.20;;
82869;SDS011;72645;47.136;15.420;2024-03-23T05:22:47;8.50;;;3.40;;
82869;SDS011;72645;47.136;15.420;2024-03-23T05:25:18;6.30;;;3.00;;
82869;SDS011;72645;47.136;15.420;2024-03-23T05:27:48;7.60;;;2.90;;
82869;SDS011;72645;47.136;15.420;2024-03-23T05:30:19;6.40;;;3.50;;
82869;SDS011;72645;47.136;15.420;2024-03-23T05:32:50;4.90;;;3.30;;
82869;SDS011;72645;47.136;15.420;2024-03-23T05:40:18;6.40;;;3.00;;
82869;SDS011;72645;47.136;15.420;2024-03-23T05:42:49;7.80;;;4.00;;
82869;SDS011;72645;47.136;15.420;2024-03-23T05:45:21;10.20;;;3.30;;
82869;SDS011;72645;47.136;15.420;2024-03-23T05:47:51;4.70;;;2.50;;
82869;SDS011;72645;47.136;15.420;2024-03-23T05:50:24;5.30;;;2.80;;
82869;SDS011;72645;47.136;15.420;2024-03-23T05:52:54;6.60;;;2.90;;
82869;SDS011;72645;47.136;15.420;2024-03-23T05:57:55;9.50;;;3.30;;
82869;SDS011;72645;47.136;15.420;2024-03-23T06:00:27;7.60;;;3.70;;
82869;SDS011;72645;47.136;15.420;2024-03-23T06:05:27;5.70;;;2.70;;
82869;SDS011;72645;47.136;15.420;2024-03-23T06:10:28;7.10;;;3.30;;
82869;SDS011;72645;47.136;15.420;2024-03-23T06:12:59;6.80;;;3.40;;
82869;SDS011;72645;47.136;15.420;2024-03-23T06:15:29;9.30;;;3.60;;
82869;SDS011;72645;47.136;15.420;2024-03-23T06:18:00;10.40;;;3.40;;
82869;SDS011;72645;47.136;15.420;2024-03-23T06:20:31;7.60;;;3.20;;
82869;SDS011;72645;47.136;15.420;2024-03-23T06:23:02;7.20;;;3.80;;
82869;SDS011;72645;47.136;15.420;2024-03-23T06:25:32;5.60;;;2.60;;
82869;SDS011;72645;47.136;15.420;2024-03-23T06:28:03;7.10;;;3.40;;
82869;SDS011;72645;47.136;15.420;2024-03-23T06:30:34;7.20;;;3.20;;
82869;SDS011;72645;47.136;15.420;2024-03-23T06:33:04;4.90;;;2.70;;
82869;SDS011;72645;47.136;15.420;2024-03-23T06:35:35;6.50;;;3.00;;
82869;SDS011;72645;47.136;15.420;2024-03-23T06:38:05;4.20;;;2.60;;
82869;SDS011;72645;47.136;15.420;2024-03-23T06:43:06;4.40;;;2.70;;
82869;SDS011;72645;47.136;15.420;2024-03-23T06:45:36;4.70;;;2.50;;
82869;SDS011;72645;47.136;15.420;2024-03-23T06:48:07;4.90;;;3.50;;
82869;SDS011;72645;47.136;15.420;2024-03-23T06:50:38;7.60;;;2.80;;
82869;SDS011;72645;47.136;15.420;2024-03-23T06:53:08;5.70;;;3.10;;
82869;SDS011;72645;47.136;15.420;2024-03-23T06:58:08;3.90;;;3.00;;
82869;SDS011;72645;47.136;15.420;2024-03-23T07:00:38;6.20;;;3.00;;
82869;SDS011;72645;47.136;15.420;2024-03-23T07:03:09;4.10;;;2.80;;
82869;SDS011;72645;47.136;15.420;2024-03-23T07:05:40;8.20;;;3.30;;
82869;SDS011;72645;47.136;15.420;2024-03-23T07:08:10;5.70;;;3.10;;
82869;SDS011;72645;47.136;15.420;2024-03-23T07:10:46;6.70;;;3.00;;
82869;SDS011;72645;47.136;15.420;2024-03-23T07:13:17;5.80;;;3.10;;
82869;SDS011;72645;47.136;15.420;2024-03-23T07:15:52;4.70;;;3.10;;
82869;SDS011;72645;47.136;15.420;2024-03-23T07:18:24;6.80;;;2.70;;
82869;SDS011;72645;47.136;15.420;2024-03-23T07:20:55;4.80;;;3.10;;
82869;SDS011;72645;47.136;15.420;2024-03-23T07:23:27;5.20;;;3.30;;
82869;SDS011;72645;47.136;15.420;2024-03-23T07:25:57;4.40;;;2.60;;
82869;SDS011;72645;47.136;15.420;2024-03-23T07:28:28;4.90;;;3.00;;
82869;SDS011;72645;47.136;15.420;2024-03-23T07:31:04;9.80;;;3.00;;
82869;SDS011;72645;47.136;15.420;2024-03-23T07:33:36;6.60;;;3.20;;
82869;SDS011;72645;47.136;15.420;2024-03-23T07:36:11;5.70;;;2.80;;
82869;SDS011;72645;47.136;15.420;2024-03-23T07:38:42;7.20;;;3.20;;
82869;SDS011;72645;47.136;15.420;2024-03-23T07:41:22;4.50;;;2.90;;
82869;SDS011;72645;47.136;15.420;2024-03-23T07:43:53;6.20;;;2.90;;
82869;SDS011;72645;47.136;15.420;2024-03-23T07:46:24;6.50;;;2.60;;
82869;SDS011;72645;47.136;15.420;2024-03-23T07:48:54;7.50;;;2.90;;
82869;SDS011;72645;47.136;15.420;2024-03-23T07:51:25;3.60;;;2.40;;
82869;SDS011;72645;47.136;15.420;2024-03-23T07:53:55;4.10;;;2.80;;
82869;SDS011;72645;47.136;15.420;2024-03-23T07:56:25;5.60;;;2.70;;
82869;SDS011;72645;47.136;15.420;2024-03-23T07:58:56;7.40;;;2.80;;
82869;SDS011;72645;47.136;15.420;2024-03-23T08:01:26;3.70;;;2.40;;
82869;SDS011;72645;47.136;15.420;2024-03-23T08:03:57;4.40;;;2.70;;
82869;SDS011;72645;47.136;15.420;2024-03-23T08:06:28;4.40;;;2.40;;
82869;SDS011;72645;47.136;15.420;2024-03-23T08:09:03;6.30;;;3.30;;
82869;SDS011;72645;47.136;15.420;2024-03-23T08:11:34;5.30;;;2.60;;
82869;SDS011;72645;47.136;15.420;2024-03-23T08:14:06;8.20;;;2.60;;
82869;SDS011;72645;47.136;15.420;2024-03-23T08:16:37;3.60;;;2.50;;
82869;SDS011;72645;47.136;15.420;2024-03-23T08:19:09;2.80;;;2.00;;
82869;SDS011;72645;47.136;15.420;2024-03-23T08:21:39;4.30;;;2.60;;
82869;SDS011;72645;47.136;15.420;2024-03-23T08:24:09;5.10;;;2.30;;
82869;SDS011;72645;47.136;15.420;2024-03-23T08:26:40;3.70;;;2.50;;
82869;SDS011;72645;47.136;15.420;2024-03-23T08:29:10;4.40;;;2.50;;
82869;SDS011;72645;47.136;15.420;2024-03-23T08:31:41;7.30;;;2.80;;
82869;SDS011;72645;47.136;15.420;2024-03-23T08:34:11;5.90;;;2.40;;
82869;SDS011;72645;47.136;15.420;2024-03-23T08:36:42;7.30;;;2.40;;
82869;SDS011;72645;47.136;15.420;2024-03-23T08:39:12;8.00;;;2.70;;
82869;SDS011;72645;47.136;15.420;2024-03-23T08:41:48;5.60;;;3.00;;
82869;SDS011;72645;47.136;15.420;2024-03-23T08:44:19;4.60;;;2.60;;
82869;SDS011;72645;47.136;15.420;2024-03-23T08:46:50;7.10;;;2.80;;
82869;SDS011;72645;47.136;15.420;2024-03-23T08:49:20;4.10;;;2.10;;
82869;SDS011;72645;47.136;15.420;2024-03-23T08:51:55;3.90;;;2.80;;
82869;SDS011;72645;47.136;15.420;2024-03-23T08:54:26;5.00;;;2.60;;
82869;SDS011;72645;47.136;15.420;2024-03-23T08:56:58;4.40;;;2.40;;
82869;SDS011;72645;47.136;15.420;2024-03-23T08:59:29;5.50;;;2.60;;
82869;SDS011;72645;47.136;15.420;2024-03-23T09:01:59;3.60;;;2.70;;
82869;SDS011;72645;47.136;15.420;2024-03-23T09:04:30;4.20;;;2.50;;
82869;SDS011;72645;47.136;15.420;2024-03-23T09:07:01;5.30;;;2.70;;
82869;SDS011;72645;47.136;15.420;2024-03-23T09:09:32;5.70;;;2.20;;
82869;SDS011;72645;47.136;15.420;2024-03-23T09:12:03;4.10;;;2.30;;
82869;SDS011;72645;47.136;15.420;2024-03-23T09:14:34;5.10;;;1.80;;
82869;SDS011;72645;47.136;15.420;2024-03-23T09:17:05;5.00;;;2.00;;
82869;SDS011;72645;47.136;15.420;2024-03-23T09:19:36;5.50;;;2.90;;
82869;SDS011;72645;47.136;15.420;2024-03-23T09:22:07;4.10;;;2.20;;
82869;SDS011;72645;47.136;15.420;2024-03-23T09:24:38;6.00;;;2.10;;
82869;SDS011;72645;47.136;15.420;2024-03-23T09:27:08;4.30;;;2.40;;
82869;SDS011;72645;47.136;15.420;2024-03-23T09:29:39;6.10;;;3.20;;
82869;SDS011;72645;47.136;15.420;2024-03-23T09:32:09;9.50;;;3.20;;
82869;SDS011;72645;47.136;15.420;2024-03-23T09:34:40;8.10;;;3.90;;
82869;SDS011;72645;47.136;15.420;2024-03-23T09:37:10;11.10;;;4.80;;
82869;SDS011;72645;47.136;15.420;2024-03-23T09:39:41;5.20;;;3.10;;
82869;SDS011;72645;47.136;15.420;2024-03-23T09:42:12;4.60;;;2.00;;
82869;SDS011;72645;47.136;15.420;2024-03-23T09:44:43;10.70;;;3.70;;
82869;SDS011;72645;47.136;15.420;2024-03-23T09:47:14;5.00;;;2.40;;
82869;SDS011;72645;47.136;15.420;2024-03-23T09:49:47;4.60;;;2.30;;
82869;SDS011;72645;47.136;15.420;2024-03-23T09:52:18;5.50;;;2.90;;
82869;SDS011;72645;47.136;15.420;2024-03-23T09:54:49;10.30;;;3.40;;
82869;SDS011;72645;47.136;15.420;2024-03-23T09:57:19;8.80;;;3.40;;
82869;SDS011;72645;47.136;15.420;2024-03-23T09:59:49;8.60;;;3.80;;
82869;SDS011;72645;47.136;15.420;2024-03-23T10:02:22;8.50;;;4.10;;
82869;SDS011;72645;47.136;15.420;2024-03-23T10:04:53;9.60;;;5.00;;
82869;SDS011;72645;47.136;15.420;2024-03-23T10:07:25;7.90;;;4.40;;
82869;SDS011;72645;47.136;15.420;2024-03-23T10:09:57;11.20;;;5.00;;
82869;SDS011;72645;47.136;15.420;2024-03-23T10:12:39;9.00;;;3.90;;
82869;SDS011;72645;47.136;15.420;2024-03-23T10:15:21;9.90;;;4.40;;
82869;SDS011;72645;47.136;15.420;2024-03-23T10:17:52;7.10;;;3.30;;
82869;SDS011;72645;47.136;15.420;2024-03-23T10:20:23;7.50;;;3.90;;
82869;SDS011;72645;47.136;15.420;2024-03-23T10:22:54;10.10;;;4.00;;
82869;SDS011;72645;47.136;15.420;2024-03-23T10:25:24;5.40;;;2.60;;
82869;SDS011;72645;47.136;15.420;2024-03-23T10:27:59;5.40;;;3.20;;
82869;SDS011;72645;47.136;15.420;2024-03-23T10:30:30;6.40;;;3.10;;
82869;SDS011;72645;47.136;15.420;2024-03-23T10:33:08;5.50;;;3.30;;
82869;SDS011;72645;47.136;15.420;2024-03-23T10:35:39;7.30;;;3.20;;
82869;SDS011;72645;47.136;15.420;2024-03-23T10:38:10;6.60;;;2.90;;
82869;SDS011;72645;47.136;15.420;2024-03-23T10:40:41;6.80;;;2.70;;
82869;SDS011;72645;47.136;15.420;2024-03-23T10:43:12;6.40;;;3.10;;
82869;SDS011;72645;47.136;15.420;2024-03-23T10:45:44;4.60;;;2.90;;
82869;SDS011;72645;47.136;15.420;2024-03-23T10:48:15;4.20;;;2.70;;
82869;SDS011;72645;47.136;15.420;2024-03-23T10:50:45;5.10;;;2.70;;
82869;SDS011;72645;47.136;15.420;2024-03-23T10:53:16;3.20;;;2.10;;
82869;SDS011;72645;47.136;15.420;2024-03-23T10:55:47;3.80;;;2.10;;
82869;SDS011;72645;47.136;15.420;2024-03-23T10:58:19;3.20;;;2.00;;
82869;SDS011;72645;47.136;15.420;2024-03-23T11:00:53;4.70;;;2.40;;
82869;SDS011;72645;47.136;15.420;2024-03-23T11:03:36;3.70;;;2.10;;
82869;SDS011;72645;47.136;15.420;2024-03-23T11:06:08;3.80;;;2.00;;
82869;SDS011;72645;47.136;15.420;2024-03-23T11:08:38;5.30;;;2.20;;
82869;SDS011;72645;47.136;15.420;2024-03-23T11:11:14;3.90;;;2.00;;
82869;SDS011;72645;47.136;15.420;2024-03-23T11:13:47;2.90;;;1.90;;
82869;SDS011;72645;47.136;15.420;2024-03-23T11:16:21;4.70;;;1.80;;
82869;SDS011;72645;47.136;15.420;2024-03-23T11:18:55;5.00;;;2.10;;
82869;SDS011;72645;47.136;15.420;2024-03-23T11:22:05;4.10;;;2.30;;
82869;SDS011;72645;47.136;15.420;2024-03-23T11:24:35;6.40;;;2.50;;
82869;SDS011;72645;47.136;15.420;2024-03-23T11:27:16;5.10;;;2.20;;
82869;SDS011;72645;47.136;15.420;2024-03-23T11:29:47;3.80;;;1.90;;
82869;SDS011;72645;47.136;15.420;2024-03-23T11:32:18;3.90;;;1.70;;
82869;SDS011;72645;47.136;15.420;2024-03-23T11:34:49;3.00;;;1.80;;
82869;SDS011;72645;47.136;15.420;2024-03-23T11:37:20;2.50;;;1.40;;
82869;SDS011;72645;47.136;15.420;2024-03-23T11:39:50;3.40;;;2.30;;
82869;SDS011;72645;47.136;15.420;2024-03-23T11:42:21;3.00;;;1.50;;
82869;SDS011;72645;47.136;15.420;2024-03-23T11:44:51;3.60;;;1.70;;
82869;SDS011;72645;47.136;15.420;2024-03-23T11:47:21;6.50;;;2.20;;
82869;SDS011;72645;47.136;15.420;2024-03-23T11:49:52;3.40;;;1.80;;
82869;SDS011;72645;47.136;15.420;2024-03-23T11:52:22;4.60;;;2.40;;
82869;SDS011;72645;47.136;15.420;2024-03-23T11:54:53;4.40;;;1.80;;
82869;SDS011;72645;47.136;15.420;2024-03-23T11:57:35;2.90;;;1.60;;
82869;SDS011;72645;47.136;15.420;2024-03-23T12:02:51;3.00;;;1.60;;
82869;SDS011;72645;47.136;15.420;2024-03-23T12:05:21;3.80;;;1.70;;
82869;SDS011;72645;47.136;15.420;2024-03-23T12:07:52;3.30;;;1.70;;
82869;SDS011;72645;47.136;15.420;2024-03-23T12:10:22;3.40;;;1.60;;
82869;SDS011;72645;47.136;15.420;2024-03-23T12:13:01;3.60;;;1.70;;
82869;SDS011;72645;47.136;15.420;2024-03-23T12:15:32;2.80;;;2.30;;
82869;SDS011;72645;47.136;15.420;2024-03-23T12:18:08;3.10;;;1.80;;
82869;SDS011;72645;47.136;15.420;2024-03-23T12:20:39;2.50;;;1.50;;
82869;SDS011;72645;47.136;15.420;2024-03-23T12:23:14;4.00;;;2.00;;
82869;SDS011;72645;47.136;15.420;2024-03-23T12:25:44;3.10;;;1.70;;
82869;SDS011;72645;47.136;15.420;2024-03-23T12:28:17;2.90;;;1.80;;
82869;SDS011;72645;47.136;15.420;2024-03-23T12:30:47;5.60;;;2.40;;
82869;SDS011;72645;47.136;15.420;2024-03-23T12:33:18;5.00;;;2.10;;
82869;SDS011;72645;47.136;15.420;2024-03-23T12:35:49;3.30;;;2.50;;
82869;SDS011;72645;47.136;15.420;2024-03-23T12:38:20;2.90;;;2.00;;
82869;SDS011;72645;47.136;15.420;2024-03-23T12:40:50;3.90;;;2.10;;
82869;SDS011;72645;47.136;15.420;2024-03-23T12:43:21;3.60;;;2.60;;
82869;SDS011;72645;47.136;15.420;2024-03-23T12:45:52;3.80;;;2.20;;
82869;SDS011;72645;47.136;15.420;2024-03-23T12:48:22;5.80;;;2.70;;
82869;SDS011;72645;47.136;15.420;2024-03-23T12:50:55;4.40;;;2.80;;
82869;SDS011;72645;47.136;15.420;2024-03-23T12:53:26;4.20;;;2.50;;
82869;SDS011;72645;47.136;15.420;2024-03-23T12:55:56;6.10;;;3.10;;
82869;SDS011;72645;47.136;15.420;2024-03-23T12:58:27;5.40;;;2.60;;
82869;SDS011;72645;47.136;15.420;2024-03-23T13:00:59;4.90;;;2.50;;
82869;SDS011;72645;47.136;15.420;2024-03-23T13:03:29;4.10;;;2.90;;
82869;SDS011;72645;47.136;15.420;2024-03-23T13:06:00;4.20;;;3.00;;
82869;SDS011;72645;47.136;15.420;2024-03-23T13:08:35;5.20;;;2.40;;
82869;SDS011;72645;47.136;15.420;2024-03-23T13:11:05;4.30;;;2.50;;
82869;SDS011;72645;47.136;15.420;2024-03-23T13:13:36;3.40;;;2.00;;
82869;SDS011;72645;47.136;15.420;2024-03-23T13:16:06;4.70;;;2.50;;
82869;SDS011;72645;47.136;15.420;2024-03-23T13:18:37;3.70;;;2.10;;
82869;SDS011;72645;47.136;15.420;2024-03-23T13:21:07;4.60;;;2.00;;
82869;SDS011;72645;47.136;15.420;2024-03-23T13:23:38;4.10;;;2.60;;
82869;SDS011;72645;47.136;15.420;2024-03-23T13:26:10;3.60;;;2.00;;
82869;SDS011;72645;47.136;15.420;2024-03-23T13:28:44;3.60;;;2.50;;
82869;SDS011;72645;47.136;15.420;2024-03-23T13:31:15;5.10;;;2.30;;
82869;SDS011;72645;47.136;15.420;2024-03-23T13:33:45;4.10;;;2.50;;
82869;SDS011;72645;47.136;15.420;2024-03-23T13:36:16;3.60;;;2.20;;
82869;SDS011;72645;47.136;15.420;2024-03-23T13:38:46;3.50;;;2.00;;
82869;SDS011;72645;47.136;15.420;2024-03-23T13:41:17;4.30;;;2.30;;
82869;SDS011;72645;47.136;15.420;2024-03-23T13:43:47;4.20;;;2.10;;
82869;SDS011;72645;47.136;15.420;2024-03-23T13:46:18;5.30;;;2.90;;
82869;SDS011;72645;47.136;15.420;2024-03-23T13:48:48;4.60;;;1.80;;
82869;SDS011;72645;47.136;15.420;2024-03-23T13:51:22;5.40;;;2.00;;
82869;SDS011;72645;47.136;15.420;2024-03-23T13:53:54;4.10;;;2.20;;
82869;SDS011;72645;47.136;15.420;2024-03-23T13:56:28;5.80;;;2.10;;
82869;SDS011;72645;47.136;15.420;2024-03-23T13:58:58;3.50;;;1.90;;
82869;SDS011;72645;47.136;15.420;2024-03-23T14:01:29;4.90;;;2.00;;
82869;SDS011;72645;47.136;15.420;2024-03-23T14:03:59;3.10;;;1.70;;
82869;SDS011;72645;47.136;15.420;2024-03-23T14:06:30;5.30;;;2.40;;
82869;SDS011;72645;47.136;15.420;2024-03-23T14:09:00;5.80;;;2.30;;
82869;SDS011;72645;47.136;15.420;2024-03-23T14:11:31;6.30;;;2.10;;
82869;SDS011;72645;47.136;15.420;2024-03-23T14:14:02;6.80;;;3.60;;
82869;SDS011;72645;47.136;15.420;2024-03-23T14:16:33;3.60;;;2.10;;
82869;SDS011;72645;47.136;15.420;2024-03-23T14:19:03;4.20;;;2.20;;
82869;SDS011;72645;47.136;15.420;2024-03-23T14:21:34;3.40;;;2.40;;
82869;SDS011;72645;47.136;15.420;2024-03-23T14:24:05;3.60;;;1.90;;
82869;SDS011;72645;47.136;15.420;2024-03-23T14:26:36;3.40;;;1.80;;
82869;SDS011;72645;47.136;15.420;2024-03-23T14:29:08;3.00;;;2.10;;
82869;SDS011;72645;47.136;15.420;2024-03-23T14:31:39;5.70;;;2.10;;
82869;SDS011;72645;47.136;15.420;2024-03-23T14:34:09;6.60;;;2.70;;
82869;SDS011;72645;47.136;15.420;2024-03-23T14:36:40;3.70;;;1.80;;
82869;SDS011;72645;47.136;15.420;2024-03-23T14:39:10;3.20;;;2.40;;
82869;SDS011;72645;47.136;15.420;2024-03-23T14:41:42;4.50;;;2.30;;
82869;SDS011;72645;47.136;15.420;2024-03-23T14:44:13;4.00;;;2.40;;
82869;SDS011;72645;47.136;15.420;2024-03-23T14:46:44;6.30;;;3.20;;
82869;SDS011;72645;47.136;15.420;2024-03-23T14:49:14;3.60;;;2.00;;
82869;SDS011;72645;47.136;15.420;2024-03-23T14:51:45;5.10;;;2.50;;
82869;SDS011;72645;47.136;15.420;2024-03-23T14:54:15;3.90;;;2.50;;
82869;SDS011;72645;47.136;15.420;2024-03-23T14:56:46;5.10;;;2.60;;
82869;SDS011;72645;47.136;15.420;2024-03-23T14:59:16;5.30;;;1.60;;
82869;SDS011;72645;47.136;15.420;2024-03-23T15:01:47;2.50;;;0.80;;
82869;SDS011;72645;47.136;15.420;2024-03-23T15:04:18;4.90;;;1.00;;
82869;SDS011;72645;47.136;15.420;2024-03-23T15:06:49;3.80;;;1.40;;
82869;SDS011;72645;47.136;15.420;2024-03-23T15:09:19;2.80;;;1.00;;
82869;SDS011;72645;47.136;15.420;2024-03-23T15:11:50;3.00;;;1.40;;
82869;SDS011;72645;47.136;15.420;2024-03-23T15:14:23;7.10;;;0.70;;
82869;SDS011;72645;47.136;15.420;2024-03-23T15:16:53;8.00;;;0.60;;
82869;SDS011;72645;47.136;15.420;2024-03-23T15:19:23;2.70;;;0.40;;
82869;SDS011;72645;47.136;15.420;2024-03-23T15:21:54;2.60;;;0.50;;
82869;SDS011;72645;47.136;15.420;2024-03-23T15:24:24;3.30;;;0.60;;
82869;SDS011;72645;47.136;15.420;2024-03-23T15:26:55;6.50;;;0.40;;
82869;SDS011;72645;47.136;15.420;2024-03-23T15:29:26;1.40;;;0.30;;
82869;SDS011;72645;47.136;15.420;2024-03-23T15:31:56;0.30;;;0.10;;
82869;SDS011;72645;47.136;15.420;2024-03-23T15:34:27;1.30;;;0.40;;
82869;SDS011;72645;47.136;15.420;2024-03-23T15:36:59;4.30;;;0.20;;
82869;SDS011;72645;47.136;15.420;2024-03-23T15:39:29;1.30;;;0.40;;
82869;SDS011;72645;47.136;15.420;2024-03-23T15:42:03;0.20;;;0.10;;
82869;SDS011;72645;47.136;15.420;2024-03-23T15:44:36;4.60;;;0.80;;
82869;SDS011;72645;47.136;15.420;2024-03-23T15:47:06;1.80;;;0.20;;
82869;SDS011;72645;47.136;15.420;2024-03-23T15:49:37;1.70;;;0.30;;
82869;SDS011;72645;47.136;15.420;2024-03-23T15:52:08;2.50;;;0.80;;
82869;SDS011;72645;47.136;15.420;2024-03-23T15:54:38;1.60;;;0.40;;
82869;SDS011;72645;47.136;15.420;2024-03-23T15:57:09;1.10;;;0.40;;
82869;SDS011;72645;47.136;15.420;2024-03-23T15:59:40;0.40;;;0.30;;
82869;SDS011;72645;47.136;15.420;2024-03-23T16:02:11;0.50;;;0.40;;
82869;SDS011;72645;47.136;15.420;2024-03-23T16:04:42;3.70;;;0.30;;
82869;SDS011;72645;47.136;15.420;2024-03-23T16:07:13;1.50;;;0.60;;
82869;SDS011;72645;47.136;15.420;2024-03-23T16:09:45;0.30;;;0.10;;
82869;SDS011;72645;47.136;15.420;2024-03-23T16:12:15;4.10;;;0.30;;
82869;SDS011;72645;47.136;15.420;2024-03-23T16:14:46;0.90;;;0.20;;
82869;SDS011;72645;47.136;15.420;2024-03-23T16:17:16;0.20;;;0.20;;
82869;SDS011;72645;47.136;15.420;2024-03-23T16:19:47;1.20;;;0.90;;
82869;SDS011;72645;47.136;15.420;2024-03-23T16:22:18;0.30;;;0.30;;
82869;SDS011;72645;47.136;15.420;2024-03-23T16:24:49;1.40;;;0.40;;
82869;SDS011;72645;47.136;15.420;2024-03-23T16:27:19;0.50;;;0.10;;
82869;SDS011;72645;47.136;15.420;2024-03-23T16:29:50;0.10;;;0.10;;
82869;SDS011;72645;47.136;15.420;2024-03-23T16:32:20;0.40;;;0.20;;
82869;SDS011;72645;47.136;15.420;2024-03-23T16:34:52;1.00;;;0.30;;
82869;SDS011;72645;47.136;15.420;2024-03-23T16:37:22;0.50;;;0.20;;
82869;SDS011;72645;47.136;15.420;2024-03-23T16:39:53;0.30;;;0.30;;
82869;SDS011;72645;47.136;15.420;2024-03-23T16:42:24;1.10;;;0.20;;
82869;SDS011;72645;47.136;15.420;2024-03-23T16:44:54;0.70;;;0.30;;
82869;SDS011;72645;47.136;15.420;2024-03-23T16:47:24;1.50;;;0.80;;
82869;SDS011;72645;47.136;15.420;2024-03-23T16:49:55;1.50;;;1.10;;
82869;SDS011;72645;47.136;15.420;2024-03-23T16:52:27;0.40;;;0.20;;
82869;SDS011;72645;47.136;15.420;2024-03-23T16:54:57;0.40;;;0.40;;
82869;SDS011;72645;47.136;15.420;2024-03-23T16:57:28;0.50;;;0.30;;
82869;SDS011;72645;47.136;15.420;2024-03-23T16:59:58;0.30;;;0.10;;
82869;SDS011;72645;47.136;15.420;2024-03-23T17:02:28;0.30;;;0.30;;
82869;SDS011;72645;47.136;15.420;2024-03-23T17:05:00;0.70;;;0.50;;
82869;SDS011;72645;47.136;15.420;2024-03-23T17:07:32;0.50;;;0.40;;
82869;SDS011;72645;47.136;15.420;2024-03-23T17:10:03;0.70;;;0.60;;
82869;SDS011;72645;47.136;15.420;2024-03-23T17:12:34;0.80;;;0.30;;
82869;SDS011;72645;47.136;15.420;2024-03-23T17:17:34;0.60;;;0.30;;
82869;SDS011;72645;47.136;15.420;2024-03-23T17:20:06;0.40;;;0.40;;
82869;SDS011;72645;47.136;15.420;2024-03-23T17:22:37;1.50;;;0.70;;